createdAt,value
2019-01-29T00:01:25.753Z,9.83
2019-01-29T00:03:52.753Z,7.00
2019-01-29T00:06:19.932Z,9.77
2019-01-29T00:08:47.031Z,8.83
2019-01-29T00:11:14.001Z,8.37
2019-01-29T00:13:41.043Z,9.90
2019-01-29T00:16:08.162Z,8.67
2019-01-29T00:18:35.181Z,10.07
2019-01-29T00:21:02.251Z,7.33
2019-01-29T00:23:29.379Z,8.87
2019-01-29T00:25:56.913Z,9.73
2019-01-29T00:28:24.201Z,6.43
2019-01-29T00:30:51.188Z,8.40
2019-01-29T00:33:18.320Z,13.10
2019-01-29T00:35:45.506Z,7.93
2019-01-29T00:38:12.495Z,7.63
2019-01-29T00:40:39.447Z,9.13
2019-01-29T00:43:07.446Z,10.13
2019-01-29T00:45:34.424Z,9.57
2019-01-29T00:48:01.615Z,15.73
2019-01-29T00:50:28.741Z,7.03
2019-01-29T00:52:55.714Z,6.07
2019-01-29T00:55:22.802Z,10.27
2019-01-29T00:57:49.746Z,10.33
2019-01-29T01:00:18.785Z,12.30
2019-01-29T01:02:46.172Z,10.27
2019-01-29T01:05:14.138Z,8.83
2019-01-29T01:07:41.235Z,9.17
2019-01-29T01:10:10.108Z,5.97
2019-01-29T01:12:37.362Z,7.90
2019-01-29T01:15:06.146Z,8.60
2019-01-29T01:17:33.392Z,8.20
2019-01-29T01:20:00.449Z,11.03
2019-01-29T01:22:27.514Z,11.20
2019-01-29T01:24:54.491Z,7.20
2019-01-29T01:27:21.655Z,10.87
2019-01-29T01:29:48.757Z,10.93
2019-01-29T01:32:15.731Z,9.97
2019-01-29T01:34:42.963Z,8.50
2019-01-29T01:37:10.211Z,8.60
2019-01-29T01:39:37.230Z,8.53
2019-01-29T01:42:04.231Z,8.07
2019-01-29T01:44:31.450Z,10.10
2019-01-29T01:46:58.487Z,9.20
2019-01-29T01:49:25.535Z,8.80
2019-01-29T01:51:52.485Z,6.83
2019-01-29T01:54:19.808Z,10.30
2019-01-29T01:56:46.819Z,13.90
2019-01-29T01:59:13.812Z,8.03
2019-01-29T02:01:41.042Z,7.83
2019-01-29T02:04:08.041Z,9.83
2019-01-29T02:06:35.102Z,6.60
2019-01-29T02:09:05.922Z,6.57
2019-01-29T02:11:32.940Z,9.53
2019-01-29T02:13:59.935Z,8.53
2019-01-29T02:16:27.195Z,11.47
2019-01-29T02:18:54.228Z,11.00
2019-01-29T02:21:21.486Z,4.80
2019-01-29T02:23:48.527Z,7.60
2019-01-29T02:26:15.622Z,11.87
2019-01-29T02:28:42.699Z,8.27
2019-01-29T02:31:09.690Z,5.73
2019-01-29T02:33:36.659Z,6.10
2019-01-29T02:36:03.774Z,10.00
2019-01-29T02:38:30.765Z,11.77
2019-01-29T02:40:58.117Z,6.50
2019-01-29T02:43:25.439Z,7.10
2019-01-29T02:45:52.721Z,8.90
2019-01-29T02:48:20.149Z,4.60
2019-01-29T02:50:47.419Z,9.87
2019-01-29T02:53:18.450Z,7.40
2019-01-29T02:55:44.271Z,4.83
2019-01-29T02:58:11.657Z,7.20
2019-01-29T03:00:38.653Z,9.13
2019-01-29T03:03:05.654Z,10.13
2019-01-29T03:05:32.768Z,9.37
2019-01-29T03:08:00.875Z,7.27
2019-01-29T03:10:46.611Z,7.47
2019-01-29T03:13:13.983Z,7.17
2019-01-29T03:15:40.960Z,12.20
2019-01-29T03:18:08.174Z,10.00
2019-01-29T03:20:35.535Z,11.70
2019-01-29T03:23:02.729Z,16.10
2019-01-29T03:25:30.256Z,8.57
2019-01-29T03:27:57.426Z,7.17
2019-01-29T03:30:24.640Z,4.60
2019-01-29T03:32:51.819Z,12.10
2019-01-29T03:35:19.114Z,6.97
2019-01-29T03:37:46.551Z,6.77
2019-01-29T03:40:16.298Z,11.43
2019-01-29T03:42:43.377Z,7.20
2019-01-29T03:45:12.873Z,9.43
2019-01-29T03:47:40.058Z,10.23
2019-01-29T03:50:07.679Z,6.60
2019-01-29T03:52:34.983Z,5.33
2019-01-29T03:55:02.314Z,6.30
2019-01-29T03:57:29.303Z,9.37
2019-01-29T03:59:56.525Z,5.80
2019-01-29T04:02:23.636Z,5.73
2019-01-29T04:04:51.228Z,9.07
2019-01-29T04:07:18.406Z,11.90
2019-01-29T04:09:45.572Z,8.00
2019-01-29T04:12:12.576Z,6.90
2019-01-29T04:14:39.655Z,5.00
2019-01-29T04:17:06.916Z,6.57
2019-01-29T04:19:34.097Z,14.03
2019-01-29T04:22:01.386Z,6.63
2019-01-29T04:24:28.909Z,4.03
2019-01-29T04:26:56.369Z,5.07
2019-01-29T04:29:23.346Z,8.17
2019-01-29T04:31:50.328Z,8.73
2019-01-29T04:34:17.624Z,8.60
2019-01-29T04:36:45.000Z,8.30
2019-01-29T04:39:11.971Z,6.07
2019-01-29T04:41:38.981Z,9.00
2019-01-29T04:44:06.202Z,7.70
2019-01-29T04:46:33.361Z,5.87
2019-01-29T04:49:00.437Z,7.57
2019-01-29T04:51:27.443Z,9.30
2019-01-29T04:53:57.574Z,7.40
2019-01-29T04:56:23.322Z,9.07
2019-01-29T04:58:50.659Z,6.80
2019-01-29T05:01:18.479Z,7.67
2019-01-29T05:03:45.995Z,7.10
2019-01-29T05:06:13.055Z,5.83
2019-01-29T05:08:40.060Z,5.73
2019-01-29T05:11:07.225Z,4.93
2019-01-29T05:13:34.400Z,9.80
2019-01-29T05:16:01.814Z,7.50
2019-01-29T05:18:29.237Z,10.20
2019-01-29T05:20:56.555Z,5.17
2019-01-29T05:23:23.708Z,8.40
2019-01-29T05:25:50.806Z,8.67
2019-01-29T05:28:17.892Z,6.07
2019-01-29T05:30:44.867Z,5.57
2019-01-29T05:33:11.883Z,9.37
2019-01-29T05:35:38.939Z,4.57
2019-01-29T05:38:06.044Z,6.20
2019-01-29T05:40:33.125Z,5.40
2019-01-29T05:43:00.104Z,8.63
2019-01-29T05:45:27.371Z,6.20
2019-01-29T05:47:54.432Z,5.77
2019-01-29T05:50:21.758Z,7.67
2019-01-29T05:52:48.974Z,5.80
2019-01-29T05:55:16.253Z,5.43
2019-01-29T05:57:43.425Z,6.40
2019-01-29T06:00:16.559Z,5.63
2019-01-29T06:02:44.172Z,5.07
2019-01-29T06:05:11.473Z,4.50
2019-01-29T06:07:38.883Z,10.50
2019-01-29T06:10:06.833Z,8.10
2019-01-29T06:12:33.942Z,7.67
2019-01-29T06:15:00.939Z,7.73
2019-01-29T06:17:28.160Z,6.50
2019-01-29T06:19:55.290Z,4.93
2019-01-29T06:22:22.303Z,10.57
2019-01-29T06:24:49.627Z,7.47
2019-01-29T06:27:17.207Z,6.50
2019-01-29T06:29:44.174Z,5.87
2019-01-29T06:32:11.482Z,7.47
2019-01-29T06:34:39.223Z,8.67
2019-01-29T06:37:06.659Z,8.20
2019-01-29T06:39:34.328Z,7.37
2019-01-29T06:42:01.539Z,6.90
2019-01-29T06:44:28.671Z,11.03
2019-01-29T06:46:55.789Z,8.77
2019-01-29T06:49:22.894Z,9.73
2019-01-29T06:51:50.054Z,8.87
2019-01-29T06:54:17.428Z,8.47
2019-01-29T06:56:44.643Z,9.80
2019-01-29T06:59:11.882Z,7.40
2019-01-29T07:01:38.984Z,9.13
2019-01-29T07:04:06.235Z,10.87
2019-01-29T07:06:33.739Z,13.13
2019-01-29T07:09:00.873Z,8.00
2019-01-29T07:11:28.024Z,7.30
2019-01-29T07:13:55.206Z,8.73
2019-01-29T07:16:29.938Z,8.27
2019-01-29T07:19:01.810Z,6.50
2019-01-29T07:21:29.403Z,6.93
2019-01-29T07:23:56.583Z,10.10
2019-01-29T07:26:23.680Z,7.40
2019-01-29T07:28:51.344Z,8.40
2019-01-29T07:31:18.562Z,8.77
2019-01-29T07:33:45.569Z,8.67
2019-01-29T07:36:12.874Z,9.27
2019-01-29T07:38:39.939Z,8.97
2019-01-29T07:41:07.062Z,12.67
2019-01-29T07:43:34.216Z,9.20
2019-01-29T07:46:02.620Z,14.70
2019-01-29T07:48:30.850Z,6.67
2019-01-29T07:50:57.953Z,9.40
2019-01-29T07:53:25.371Z,8.90
2019-01-29T07:55:53.597Z,9.10
2019-01-29T07:58:20.835Z,10.23
2019-01-29T08:00:47.988Z,8.97
2019-01-29T08:03:15.142Z,7.50
2019-01-29T08:05:42.391Z,9.63
2019-01-29T08:08:09.533Z,7.40
2019-01-29T08:10:36.905Z,10.57
2019-01-29T08:13:04.204Z,12.80
2019-01-29T08:15:31.350Z,9.70
2019-01-29T08:17:58.385Z,7.23
2019-01-29T08:20:25.981Z,6.23
2019-01-29T08:22:53.196Z,7.70
2019-01-29T08:25:20.663Z,9.43
2019-01-29T08:27:47.886Z,9.97
2019-01-29T08:30:15.179Z,7.90
2019-01-29T08:32:42.592Z,7.90
2019-01-29T08:35:10.236Z,10.67
2019-01-29T08:37:37.566Z,6.20
2019-01-29T08:40:04.996Z,9.57
2019-01-29T08:42:31.981Z,9.80
2019-01-29T08:44:59.424Z,10.13
2019-01-29T08:47:26.541Z,8.53
2019-01-29T08:49:53.514Z,8.33
2019-01-29T08:52:20.624Z,11.07
2019-01-29T08:54:47.741Z,10.53
2019-01-29T08:57:14.822Z,9.90
2019-01-29T08:59:41.907Z,10.80
2019-01-29T09:02:09.041Z,8.50
2019-01-29T09:04:36.155Z,9.90
2019-01-29T09:07:03.460Z,10.00
2019-01-29T09:09:30.716Z,7.73
2019-01-29T09:11:58.216Z,10.07
2019-01-29T09:14:25.316Z,9.70
2019-01-29T09:16:52.752Z,11.40
2019-01-29T09:19:19.772Z,10.47
2019-01-29T09:21:46.848Z,11.20
2019-01-29T09:24:14.271Z,10.40
2019-01-29T09:26:41.266Z,10.47
2019-01-29T09:29:08.358Z,9.23
2019-01-29T09:31:35.654Z,10.33
2019-01-29T09:34:03.238Z,12.50
2019-01-29T09:36:30.376Z,11.17
2019-01-29T09:38:57.378Z,12.03
2019-01-29T09:41:24.579Z,11.20
2019-01-29T09:43:51.882Z,9.90
2019-01-29T09:46:18.971Z,8.37
2019-01-29T09:48:47.138Z,12.80
2019-01-29T09:51:14.275Z,14.05
2019-01-29T09:53:41.538Z,6.17
2019-01-29T09:56:08.637Z,13.63
2019-01-29T09:58:35.713Z,15.53
2019-01-29T10:01:02.993Z,15.47
2019-01-29T10:03:30.120Z,13.00
2019-01-29T10:05:57.230Z,12.80
2019-01-29T10:08:24.546Z,10.95
2019-01-29T10:11:11.303Z,11.93
2019-01-29T10:13:38.366Z,13.47
2019-01-29T10:16:05.391Z,9.58
2019-01-29T10:18:32.399Z,15.30
2019-01-29T10:20:59.533Z,9.68
2019-01-29T10:23:26.847Z,11.70
2019-01-29T10:25:55.141Z,12.35
2019-01-29T10:28:22.195Z,11.78
2019-01-29T10:30:49.500Z,13.68
2019-01-29T10:33:16.678Z,9.50
2019-01-29T10:35:43.658Z,10.08
2019-01-29T10:38:10.665Z,11.30
2019-01-29T10:40:37.916Z,12.23
2019-01-29T10:43:05.613Z,9.10
2019-01-29T10:45:32.801Z,10.60
2019-01-29T10:47:59.905Z,10.63
2019-01-29T10:50:28.399Z,8.75
2019-01-29T10:52:55.739Z,9.97
2019-01-29T10:55:23.074Z,12.27
2019-01-29T10:57:50.248Z,8.77
2019-01-29T11:00:19.862Z,12.13
2019-01-29T11:02:47.022Z,19.00
2019-01-29T11:05:15.880Z,9.03
2019-01-29T11:07:42.899Z,10.20
2019-01-29T11:10:11.037Z,19.77
2019-01-29T11:12:38.423Z,9.75
2019-01-29T11:15:09.321Z,10.82
2019-01-29T11:17:36.367Z,9.00
2019-01-29T11:20:05.642Z,10.03
2019-01-29T11:22:32.890Z,10.82
2019-01-29T11:24:59.878Z,9.03
2019-01-29T11:27:26.983Z,11.35
2019-01-29T11:29:54.163Z,15.60
2019-01-29T11:32:21.431Z,11.53
2019-01-29T11:34:48.533Z,14.35
2019-01-29T11:37:15.582Z,10.98
2019-01-29T11:39:42.669Z,13.53
2019-01-29T11:42:10.855Z,12.00
2019-01-29T11:44:39.076Z,16.83
2019-01-29T11:47:06.640Z,14.75
2019-01-29T11:49:34.259Z,18.30
2019-01-29T11:52:01.272Z,15.55
2019-01-29T11:54:28.501Z,14.43
2019-01-29T11:56:55.517Z,16.80
2019-01-29T11:59:22.510Z,14.67
2019-01-29T12:01:49.929Z,12.58
2019-01-29T12:04:17.147Z,16.40
2019-01-29T12:06:44.362Z,12.47
2019-01-29T12:09:11.676Z,13.05
2019-01-29T12:11:38.863Z,18.02
2019-01-29T12:14:06.079Z,13.60
2019-01-29T12:16:33.257Z,13.57
2019-01-29T12:19:00.576Z,11.20
2019-01-29T12:21:27.677Z,11.70
2019-01-29T12:23:54.747Z,12.63
2019-01-29T12:26:21.888Z,17.50
2019-01-29T12:28:49.230Z,15.83
2019-01-29T12:31:16.265Z,17.12
2019-01-29T12:33:43.333Z,15.93
2019-01-29T12:36:10.545Z,12.78
2019-01-29T12:38:37.889Z,13.95
2019-01-29T12:41:05.255Z,13.78
2019-01-29T12:43:32.407Z,13.30
2019-01-29T12:45:59.408Z,14.95
2019-01-29T12:48:26.625Z,16.42
2019-01-29T12:50:58.371Z,17.60
2019-01-29T12:53:30.133Z,15.68
2019-01-29T12:55:57.559Z,16.85
2019-01-29T12:58:25.056Z,17.17
2019-01-29T13:00:54.694Z,16.02
2019-01-29T13:03:21.725Z,14.23
2019-01-29T13:05:48.807Z,19.70
2019-01-29T13:08:16.200Z,19.30
2019-01-29T13:10:43.469Z,14.05
2019-01-29T13:13:10.826Z,19.10
2019-01-29T13:15:38.830Z,16.67
2019-01-29T13:18:06.084Z,16.65
2019-01-29T13:20:33.263Z,14.83
2019-01-29T13:23:00.454Z,14.43
2019-01-29T13:25:28.545Z,18.75
2019-01-29T13:27:55.868Z,24.37
2019-01-29T13:30:26.643Z,13.75
2019-01-29T13:32:53.951Z,13.68
2019-01-29T13:35:22.532Z,17.32
2019-01-29T13:37:49.658Z,11.50
2019-01-29T13:40:17.012Z,14.50
2019-01-29T13:42:44.912Z,12.15
2019-01-29T13:45:12.413Z,13.18
2019-01-29T13:47:39.438Z,17.75
2019-01-29T13:50:10.260Z,15.13
2019-01-29T13:52:37.642Z,14.70
2019-01-29T13:55:07.388Z,15.18
2019-01-29T13:57:35.005Z,12.73
2019-01-29T14:00:02.919Z,13.50
2019-01-29T14:02:29.978Z,12.93
2019-01-29T14:04:56.988Z,14.07
2019-01-29T14:07:24.237Z,16.12
2019-01-29T14:09:51.645Z,12.35
2019-01-29T14:12:18.999Z,14.00
2019-01-29T14:14:46.233Z,14.70
2019-01-29T14:17:13.424Z,13.22
2019-01-29T14:19:40.534Z,13.05
2019-01-29T14:22:07.541Z,15.40
2019-01-29T14:24:34.892Z,12.73
2019-01-29T14:27:02.061Z,13.22
2019-01-29T14:29:30.161Z,15.35
2019-01-29T14:31:57.381Z,14.40
2019-01-29T14:34:24.478Z,14.13
2019-01-29T14:36:51.497Z,11.65
2019-01-29T14:39:58.223Z,11.85
2019-01-29T14:42:25.370Z,13.78
2019-01-29T14:44:54.029Z,17.23
2019-01-29T14:47:21.203Z,12.90
2019-01-29T14:49:48.218Z,11.75
2019-01-29T14:52:15.469Z,12.23
2019-01-29T14:54:43.172Z,9.88
2019-01-29T14:57:10.394Z,14.50
2019-01-29T14:59:37.776Z,12.93
2019-01-29T15:02:05.116Z,11.38
2019-01-29T15:04:32.885Z,14.13
2019-01-29T15:07:00.070Z,16.77
2019-01-29T15:09:27.214Z,10.45
2019-01-29T15:11:54.611Z,13.22
2019-01-29T15:14:21.708Z,10.30
2019-01-29T15:17:07.278Z,10.68
2019-01-29T15:19:34.866Z,12.00
2019-01-29T15:22:01.963Z,10.75
2019-01-29T15:24:29.106Z,11.03
2019-01-29T15:26:56.226Z,9.73
2019-01-29T15:29:23.235Z,9.40
2019-01-29T15:31:50.365Z,9.75
2019-01-29T15:34:18.143Z,14.35
2019-01-29T15:36:45.889Z,11.43
2019-01-29T15:39:13.153Z,11.97
2019-01-29T15:41:40.745Z,13.28
2019-01-29T15:44:07.931Z,12.15
2019-01-29T15:46:35.339Z,12.60
2019-01-29T15:49:02.899Z,15.80
2019-01-29T15:51:29.957Z,11.93
2019-01-29T15:53:57.075Z,14.10
2019-01-29T15:56:24.063Z,10.28
2019-01-29T15:58:51.159Z,19.30
2019-01-29T16:01:18.139Z,14.85
2019-01-29T16:03:45.279Z,14.70
2019-01-29T16:06:12.307Z,13.70
2019-01-29T16:08:39.706Z,14.87
2019-01-29T16:11:06.699Z,14.90
2019-01-29T16:13:33.747Z,14.18
2019-01-29T16:16:01.005Z,15.70
2019-01-29T16:18:28.123Z,17.95
2019-01-29T16:20:55.452Z,15.32
2019-01-29T16:23:22.556Z,18.10
2019-01-29T16:25:49.671Z,15.20
2019-01-29T16:28:16.715Z,14.77
2019-01-29T16:30:43.820Z,20.23
2019-01-29T16:33:10.808Z,14.73
2019-01-29T16:35:38.064Z,15.30
2019-01-29T16:38:05.456Z,14.05
2019-01-29T16:40:33.140Z,19.40
2019-01-29T16:43:00.384Z,15.50
2019-01-29T16:45:30.435Z,17.07
2019-01-29T16:47:58.561Z,18.23
2019-01-29T16:50:25.805Z,16.55
2019-01-29T16:52:53.437Z,17.60
2019-01-29T16:55:20.767Z,17.42
2019-01-29T16:57:48.448Z,18.42
2019-01-29T17:00:18.853Z,16.73
2019-01-29T17:02:45.867Z,18.10
2019-01-29T17:05:13.176Z,22.00
2019-01-29T17:07:40.217Z,17.40
2019-01-29T17:10:08.892Z,16.25
2019-01-29T17:12:36.002Z,17.30
2019-01-29T17:15:04.625Z,20.60
2019-01-29T17:17:32.027Z,20.77
2019-01-29T17:19:59.269Z,19.10
2019-01-29T17:22:26.552Z,18.87
2019-01-29T17:24:53.590Z,20.17
2019-01-29T17:27:20.631Z,22.48
2019-01-29T17:29:47.764Z,21.15
2019-01-29T17:32:14.890Z,18.75
2019-01-29T17:34:41.915Z,22.30
2019-01-29T17:37:09.164Z,25.30
2019-01-29T17:39:36.484Z,18.50
2019-01-29T17:42:03.799Z,18.47
2019-01-29T17:44:30.958Z,20.77
2019-01-29T17:46:57.992Z,17.20
2019-01-29T17:49:25.132Z,17.70
2019-01-29T17:51:52.253Z,19.80
2019-01-29T17:54:19.510Z,18.70
2019-01-29T17:56:46.654Z,25.13
2019-01-29T17:59:13.867Z,21.80
2019-01-29T18:01:41.415Z,20.27
2019-01-29T18:04:08.666Z,19.37
2019-01-29T18:06:36.054Z,19.30
2019-01-29T18:09:08.052Z,20.33
2019-01-29T18:11:35.121Z,22.53
2019-01-29T18:14:02.315Z,19.90
2019-01-29T18:16:29.404Z,22.27
2019-01-29T18:18:56.519Z,19.77
2019-01-29T18:21:23.732Z,22.70
2019-01-29T18:23:50.714Z,21.27
2019-01-29T18:26:17.917Z,19.83
2019-01-29T18:28:44.911Z,25.07
2019-01-29T18:31:12.550Z,18.03
2019-01-29T18:33:39.890Z,18.07
2019-01-29T18:36:07.035Z,22.57
2019-01-29T18:38:34.043Z,18.67
2019-01-29T18:41:01.511Z,20.77
2019-01-29T18:43:28.828Z,22.80
2019-01-29T18:45:55.890Z,24.47
2019-01-29T18:48:22.930Z,24.30
2019-01-29T18:50:49.954Z,23.27
2019-01-29T18:53:18.193Z,21.23
2019-01-29T18:55:45.791Z,23.07
2019-01-29T18:58:15.068Z,28.73
2019-01-29T19:00:42.500Z,23.77
2019-01-29T19:03:09.544Z,23.25
2019-01-29T19:05:36.623Z,22.97
2019-01-29T19:08:03.924Z,23.53
2019-01-29T19:10:31.122Z,21.60
2019-01-29T19:12:58.233Z,25.63
2019-01-29T19:15:25.586Z,21.50
2019-01-29T19:17:52.814Z,26.30
2019-01-29T19:20:21.786Z,22.27
2019-01-29T19:22:49.069Z,22.40
2019-01-29T19:25:16.353Z,24.17
2019-01-29T19:27:43.805Z,25.07
2019-01-29T19:30:14.613Z,25.87
2019-01-29T19:32:41.737Z,27.03
2019-01-29T19:35:09.252Z,25.43
2019-01-29T19:37:36.362Z,22.27
2019-01-29T19:40:04.471Z,23.77
2019-01-29T19:42:31.722Z,24.50
2019-01-29T19:44:58.748Z,26.73
2019-01-29T19:47:25.923Z,22.43
2019-01-29T19:49:52.998Z,25.07
2019-01-29T19:52:21.718Z,25.27
2019-01-29T19:54:48.845Z,29.87
2019-01-29T19:57:16.151Z,23.57
2019-01-29T19:59:43.230Z,27.80
2019-01-29T20:02:10.940Z,27.23
2019-01-29T20:04:38.311Z,26.33
2019-01-29T20:07:06.299Z,25.23
2019-01-29T20:09:33.632Z,24.60
2019-01-29T20:12:01.074Z,26.37
2019-01-29T20:14:28.058Z,25.83
2019-01-29T20:16:55.131Z,36.47
2019-01-29T20:19:22.138Z,28.53
2019-01-29T20:21:49.142Z,26.67
2019-01-29T20:24:17.084Z,28.93
2019-01-29T20:26:44.672Z,28.83
2019-01-29T20:29:11.723Z,30.43
2019-01-29T20:31:38.806Z,26.23
2019-01-29T20:34:05.834Z,29.60
2019-01-29T20:36:32.859Z,25.67
2019-01-29T20:38:59.882Z,29.57
2019-01-29T20:41:27.311Z,27.87
2019-01-29T20:43:54.333Z,27.27
2019-01-29T20:46:22.511Z,27.13
2019-01-29T20:48:49.592Z,26.47
2019-01-29T20:51:16.934Z,24.53
2019-01-29T20:53:44.224Z,25.47
2019-01-29T20:56:11.433Z,31.80
2019-01-29T20:58:38.461Z,30.23
2019-01-29T21:01:05.474Z,30.53
2019-01-29T21:03:32.574Z,32.77
2019-01-29T21:05:59.571Z,32.67
2019-01-29T21:08:26.651Z,30.50
2019-01-29T21:10:53.702Z,29.67
2019-01-29T21:13:20.703Z,29.87
2019-01-29T21:15:47.774Z,30.40
2019-01-29T21:18:14.903Z,29.87
2019-01-29T21:20:42.055Z,29.83
2019-01-29T21:23:09.274Z,27.27
2019-01-29T21:25:36.659Z,32.57
2019-01-29T21:28:03.945Z,26.20
2019-01-29T21:30:36.634Z,29.43
2019-01-29T21:33:03.962Z,29.83
2019-01-29T21:35:31.077Z,30.10
2019-01-29T21:37:58.094Z,33.90
2019-01-29T21:40:25.483Z,31.63
2019-01-29T21:42:52.650Z,31.07
2019-01-29T21:45:19.849Z,34.47
2019-01-29T21:47:47.067Z,32.43
2019-01-29T21:50:19.449Z,34.00
2019-01-29T21:52:46.860Z,32.47
2019-01-29T21:55:14.494Z,30.30
2019-01-29T21:57:41.512Z,33.10
2019-01-29T22:00:13.555Z,29.50
2019-01-29T22:02:41.982Z,32.47
2019-01-29T22:05:10.027Z,29.80
2019-01-29T22:07:37.055Z,25.47
2019-01-29T22:10:04.895Z,28.77
2019-01-29T22:12:31.982Z,25.90
2019-01-29T22:14:59.288Z,32.60
2019-01-29T22:17:26.306Z,31.43
2019-01-29T22:19:53.408Z,33.93
2019-01-29T22:22:20.427Z,30.87
2019-01-29T22:24:47.455Z,28.87
2019-01-29T22:27:14.616Z,32.67
2019-01-29T22:29:41.970Z,27.83
2019-01-29T22:32:09.787Z,31.03
2019-01-29T22:34:38.008Z,28.73
2019-01-29T22:37:05.351Z,30.30
2019-01-29T22:39:32.806Z,31.37
2019-01-29T22:41:59.964Z,32.83
2019-01-29T22:44:27.317Z,32.63
2019-01-29T22:46:54.468Z,31.03
2019-01-29T22:49:21.438Z,33.93
2019-01-29T22:51:48.886Z,27.20
2019-01-29T22:54:15.860Z,30.33
2019-01-29T22:56:42.859Z,29.93
2019-01-29T22:59:09.851Z,36.63
2019-01-29T23:01:39.834Z,32.07
2019-01-29T23:04:18.470Z,30.93
2019-01-29T23:07:09.695Z,29.50
2019-01-29T23:09:36.896Z,36.23
2019-01-29T23:12:04.259Z,35.73
2019-01-29T23:14:31.668Z,27.80
2019-01-29T23:16:58.659Z,36.03
2019-01-29T23:19:25.966Z,29.47
2019-01-29T23:21:53.228Z,30.93
2019-01-29T23:24:20.624Z,33.30
2019-01-29T23:26:47.657Z,32.73
2019-01-29T23:29:17.046Z,25.87
2019-01-29T23:31:43.574Z,25.50
2019-01-29T23:34:10.527Z,32.97
2019-01-29T23:36:37.619Z,23.57
2019-01-29T23:39:07.227Z,27.40
2019-01-29T23:41:34.274Z,27.23
2019-01-29T23:44:01.338Z,24.83
2019-01-29T23:46:28.442Z,29.07
2019-01-29T23:48:55.431Z,27.60
2019-01-29T23:51:22.722Z,25.20
2019-01-29T23:53:49.821Z,28.40
2019-01-29T23:56:17.227Z,28.63
2019-01-29T23:58:44.353Z,32.93
